createdAt,value
2022-08-03T00:01:44.487Z,66.82
2022-08-03T00:04:12.511Z,66.82
2022-08-03T00:06:39.850Z,66.80
2022-08-03T00:09:08.135Z,66.82
2022-08-03T00:11:35.852Z,66.52
2022-08-03T00:14:04.658Z,66.87
2022-08-03T00:16:32.222Z,66.76
2022-08-03T00:19:00.618Z,66.97
2022-08-03T00:21:29.295Z,66.92
2022-08-03T00:23:57.284Z,66.79
2022-08-03T00:26:24.551Z,67.44
2022-08-03T00:28:51.986Z,67.91
2022-08-03T00:31:25.538Z,67.86
2022-08-03T00:34:07.463Z,67.95
2022-08-03T00:36:36.062Z,67.83
2022-08-03T00:39:03.593Z,67.85
2022-08-03T00:41:30.971Z,68.11
2022-08-03T00:43:58.465Z,68.16
2022-08-03T00:46:25.769Z,68.23
2022-08-03T00:48:54.015Z,68.20
2022-08-03T00:51:22.943Z,68.59
2022-08-03T00:53:51.205Z,68.85
2022-08-03T00:56:18.925Z,69.02
2022-08-03T00:58:47.262Z,68.99
2022-08-03T01:01:15.541Z,69.21
2022-08-03T01:03:43.246Z,69.06
2022-08-03T01:06:36.369Z,68.84
2022-08-03T01:09:20.105Z,68.91
2022-08-03T01:11:59.835Z,69.14
2022-08-03T01:14:32.769Z,69.33
2022-08-03T01:17:11.146Z,69.46
2022-08-03T01:20:14.745Z,69.10
2022-08-03T01:23:28.770Z,69.08
2022-08-03T01:26:08.489Z,69.21
2022-08-03T01:29:01.886Z,69.10
2022-08-03T01:31:35.746Z,69.44
2022-08-03T01:34:26.337Z,69.48
2022-08-03T01:36:58.203Z,69.63
2022-08-03T01:39:27.466Z,69.59
2022-08-03T01:41:59.527Z,69.47
2022-08-03T01:44:31.613Z,69.75
2022-08-03T01:47:01.125Z,69.38
2022-08-03T01:49:32.332Z,69.55
2022-08-03T01:52:03.998Z,69.43
2022-08-03T01:54:43.366Z,69.29
2022-08-03T01:57:11.889Z,69.49
2022-08-03T01:59:40.609Z,69.49
2022-08-03T02:02:29.075Z,69.16
2022-08-03T02:05:00.958Z,69.09
2022-08-03T02:07:32.469Z,68.78
2022-08-03T02:10:02.997Z,68.39
2022-08-03T02:12:39.018Z,67.50
2022-08-03T02:15:08.164Z,66.72
2022-08-03T02:17:39.349Z,65.84
2022-08-03T02:20:11.560Z,64.73
2022-08-03T02:22:43.355Z,63.62
2022-08-03T02:25:14.031Z,62.83
2022-08-03T02:28:10.930Z,61.25
2022-08-03T02:30:44.438Z,59.08
2022-08-03T02:33:21.151Z,58.79
2022-08-03T02:35:51.525Z,58.54
2022-08-03T02:38:21.633Z,58.95
2022-08-03T02:40:51.474Z,59.01
2022-08-03T02:43:22.167Z,59.14
2022-08-03T02:45:51.713Z,59.31
2022-08-03T02:48:23.705Z,59.14
2022-08-03T02:50:57.305Z,59.88
2022-08-03T02:53:27.805Z,59.90
2022-08-03T02:55:57.098Z,60.21
2022-08-03T02:58:26.105Z,59.83
2022-08-03T03:00:55.356Z,59.82
2022-08-03T03:03:23.627Z,59.54
2022-08-03T03:05:57.686Z,59.50
2022-08-03T03:08:28.823Z,58.04
2022-08-03T03:10:59.831Z,57.54
2022-08-03T03:13:31.623Z,54.73
2022-08-03T03:16:04.122Z,50.88
2022-08-03T03:18:36.298Z,48.11
2022-08-03T03:21:04.885Z,45.03
2022-08-03T03:23:37.146Z,42.92
2022-08-03T03:26:05.621Z,41.49
2022-08-03T03:28:37.281Z,40.43
2022-08-03T03:31:06.766Z,39.42
2022-08-03T03:33:35.217Z,37.67
2022-08-03T03:36:03.276Z,36.59
2022-08-03T03:38:31.093Z,35.09
2022-08-03T03:40:58.749Z,33.92
2022-08-03T03:43:26.253Z,33.67
2022-08-03T03:45:55.307Z,33.20
2022-08-03T03:48:22.849Z,32.44
2022-08-03T03:50:50.513Z,31.34
2022-08-03T03:53:18.576Z,30.59
2022-08-03T03:55:59.220Z,29.75
2022-08-03T03:58:32.326Z,28.94
2022-08-03T04:01:00.474Z,28.29
2022-08-03T04:03:28.272Z,28.44
2022-08-03T04:06:14.767Z,28.45
2022-08-03T04:09:01.093Z,28.14
2022-08-03T04:11:35.198Z,27.25
2022-08-03T04:14:11.290Z,27.53
2022-08-03T04:16:44.091Z,26.09
2022-08-03T04:19:21.039Z,25.78
2022-08-03T04:21:57.258Z,25.76
2022-08-03T04:24:31.091Z,24.41
2022-08-03T04:27:01.137Z,23.67
2022-08-03T04:29:29.729Z,23.40
2022-08-03T04:31:59.893Z,22.41
2022-08-03T04:34:28.373Z,21.77
2022-08-03T04:37:00.196Z,21.88
2022-08-03T04:39:31.389Z,22.22
2022-08-03T04:42:08.501Z,21.83
2022-08-03T04:44:42.086Z,21.24
2022-08-03T04:47:09.591Z,20.40
2022-08-03T04:49:38.361Z,20.12
2022-08-03T04:52:08.590Z,20.46
2022-08-03T04:55:01.411Z,20.90
2022-08-03T04:57:31.459Z,20.42
2022-08-03T05:00:03.178Z,20.20
2022-08-03T05:02:35.604Z,20.89
2022-08-03T05:05:02.891Z,20.66
2022-08-03T05:07:35.777Z,20.80
2022-08-03T05:10:15.729Z,21.58
2022-08-03T05:12:45.786Z,20.72
2022-08-03T05:15:13.796Z,20.60
2022-08-03T05:17:41.828Z,19.45
2022-08-03T05:20:10.134Z,19.09
2022-08-03T05:22:37.781Z,19.01
2022-08-03T05:25:05.587Z,18.89
2022-08-03T05:27:32.948Z,18.36
2022-08-03T05:30:30.968Z,17.87
2022-08-03T05:32:47.870Z,17.92
2022-08-03T05:35:56.195Z,17.21
2022-08-03T05:38:03.844Z,16.78
2022-08-03T05:40:31.417Z,17.31
2022-08-03T05:43:00.110Z,16.82
2022-08-03T05:45:28.552Z,16.88
2022-08-03T05:47:56.450Z,16.42
2022-08-03T05:50:24.104Z,17.08
2022-08-03T05:52:51.728Z,17.96
2022-08-03T05:55:19.343Z,18.03
2022-08-03T05:57:49.311Z,17.63
2022-08-03T06:00:17.538Z,17.08
2022-08-03T06:02:46.230Z,17.45
2022-08-03T06:05:13.664Z,17.50
2022-08-03T06:07:41.294Z,16.95
2022-08-03T06:10:37.242Z,16.27
2022-08-03T06:12:56.723Z,16.51
2022-08-03T06:15:24.024Z,16.79
2022-08-03T06:17:52.599Z,16.11
2022-08-03T06:20:21.415Z,16.57
2022-08-03T06:23:00.119Z,16.49
2022-08-03T06:25:29.393Z,15.85
2022-08-03T06:27:56.950Z,16.75
2022-08-03T06:30:24.359Z,16.61
2022-08-03T06:32:52.562Z,15.42
2022-08-03T06:35:20.515Z,15.67
2022-08-03T06:37:52.727Z,15.69
2022-08-03T06:40:31.600Z,14.63
2022-08-03T06:43:01.642Z,15.41
2022-08-03T06:45:31.918Z,15.84
2022-08-03T06:48:05.667Z,16.63
2022-08-03T06:50:34.333Z,16.88
2022-08-03T06:53:02.483Z,17.02
2022-08-03T06:55:30.690Z,17.25
2022-08-03T06:57:59.850Z,16.50
2022-08-03T07:00:31.692Z,16.66
2022-08-03T07:02:59.087Z,16.60
2022-08-03T07:05:26.424Z,16.57
2022-08-03T07:07:59.550Z,16.10
2022-08-03T07:10:27.877Z,15.83
2022-08-03T07:12:56.578Z,15.75
2022-08-03T07:15:54.304Z,16.58
2022-08-03T07:18:12.984Z,16.95
2022-08-03T07:20:59.015Z,16.31
2022-08-03T07:23:26.728Z,16.50
2022-08-03T07:25:53.975Z,15.85
2022-08-03T07:28:21.646Z,15.67
2022-08-03T07:30:49.150Z,16.31
2022-08-03T07:33:16.485Z,17.20
2022-08-03T07:35:43.964Z,16.79
2022-08-03T07:38:11.404Z,16.60
2022-08-03T07:40:44.446Z,16.71
2022-08-03T07:43:13.836Z,17.25
2022-08-03T07:45:41.515Z,16.88
2022-08-03T07:48:12.087Z,17.48
2022-08-03T07:50:40.883Z,16.92
2022-08-03T07:53:08.405Z,17.79
2022-08-03T07:55:35.721Z,17.54
2022-08-03T07:58:05.619Z,17.22
2022-08-03T08:00:34.180Z,17.67
2022-08-03T08:03:02.210Z,17.95
2022-08-03T08:05:30.151Z,17.77
2022-08-03T08:07:57.494Z,18.82
2022-08-03T08:10:24.936Z,19.86
2022-08-03T08:12:52.701Z,21.39
2022-08-03T08:15:20.185Z,21.73
2022-08-03T08:17:49.170Z,22.98
2022-08-03T08:20:27.713Z,23.39
2022-08-03T08:22:58.334Z,23.32
2022-08-03T08:25:30.922Z,24.48
2022-08-03T08:28:22.437Z,24.26
2022-08-03T08:30:47.039Z,24.62
2022-08-03T08:33:22.490Z,25.20
2022-08-03T08:35:53.481Z,24.86
2022-08-03T08:38:21.599Z,25.69
2022-08-03T08:40:50.368Z,25.81
2022-08-03T08:43:18.038Z,25.99
2022-08-03T08:45:46.193Z,26.68
2022-08-03T08:48:14.723Z,26.85
2022-08-03T08:50:42.906Z,26.53
2022-08-03T08:53:18.104Z,27.00
2022-08-03T08:55:58.715Z,27.26
2022-08-03T08:58:29.853Z,27.17
2022-08-03T09:00:57.636Z,27.28
2022-08-03T09:03:29.538Z,27.71
2022-08-03T09:06:00.906Z,28.65
2022-08-03T09:08:30.428Z,28.91
2022-08-03T09:10:58.421Z,29.28
2022-08-03T09:13:26.569Z,29.91
2022-08-03T09:16:21.366Z,30.36
2022-08-03T09:18:54.621Z,30.48
2022-08-03T09:21:33.229Z,30.10
2022-08-03T09:24:05.914Z,30.33
2022-08-03T09:26:36.646Z,30.25
2022-08-03T09:29:16.787Z,30.51
2022-08-03T09:31:46.642Z,30.45
2022-08-03T09:34:18.481Z,30.56
2022-08-03T09:36:50.809Z,30.83
2022-08-03T09:39:28.633Z,30.78
2022-08-03T09:42:09.607Z,30.44
2022-08-03T09:44:51.021Z,31.41
2022-08-03T09:47:29.894Z,31.47
2022-08-03T09:50:08.546Z,31.51
2022-08-03T09:52:52.122Z,32.11
2022-08-03T09:56:33.346Z,31.90
2022-08-03T09:58:14.488Z,31.95
2022-08-03T10:00:57.221Z,32.35
2022-08-03T10:03:26.851Z,32.53
2022-08-03T10:05:59.309Z,32.88
2022-08-03T10:08:27.665Z,33.07
2022-08-03T10:10:55.383Z,33.28
2022-08-03T10:13:23.646Z,33.45
2022-08-03T10:16:21.351Z,33.11
2022-08-03T10:18:38.904Z,33.62
2022-08-03T10:21:10.860Z,33.58
2022-08-03T10:23:39.822Z,33.01
2022-08-03T10:26:08.377Z,33.19
2022-08-03T10:28:45.088Z,33.26
2022-08-03T10:31:14.437Z,33.30
2022-08-03T10:33:51.253Z,33.25
2022-08-03T10:36:24.133Z,32.77
2022-08-03T10:38:53.494Z,32.69
2022-08-03T10:41:23.518Z,32.78
2022-08-03T10:43:57.056Z,31.75
2022-08-03T10:46:26.610Z,31.53
2022-08-03T10:48:54.495Z,31.27
2022-08-03T10:51:23.026Z,32.13
2022-08-03T10:53:55.213Z,31.53
2022-08-03T10:56:55.189Z,31.52
2022-08-03T10:59:47.402Z,31.13
2022-08-03T11:02:15.817Z,31.89
2022-08-03T11:04:47.115Z,32.13
2022-08-03T11:07:17.916Z,31.80
2022-08-03T11:09:48.859Z,32.30
2022-08-03T11:12:34.204Z,32.08
2022-08-03T11:15:07.755Z,32.10
2022-08-03T11:17:46.484Z,31.96
2022-08-03T11:20:50.420Z,32.50
2022-08-03T11:24:03.966Z,32.04
2022-08-03T11:26:27.840Z,32.95
2022-08-03T11:29:28.152Z,32.37
2022-08-03T11:31:55.510Z,32.00
2022-08-03T11:34:24.761Z,32.27
2022-08-03T11:37:28.786Z,31.98
2022-08-03T11:39:57.433Z,32.50
2022-08-03T11:42:25.086Z,32.86
2022-08-03T11:44:54.595Z,31.87
2022-08-03T11:47:24.280Z,32.38
2022-08-03T11:49:54.286Z,32.33
2022-08-03T11:52:27.239Z,31.58
2022-08-03T11:54:57.043Z,31.49
2022-08-03T11:58:58.314Z,31.73
2022-08-03T12:00:32.336Z,32.02
2022-08-03T12:03:04.247Z,32.22
2022-08-03T12:05:40.654Z,32.23
2022-08-03T12:08:13.910Z,31.69
2022-08-03T12:10:46.569Z,31.45
2022-08-03T12:14:45.593Z,31.62
2022-08-03T12:16:02.671Z,31.02
2022-08-03T12:18:30.445Z,31.56
2022-08-03T12:21:09.039Z,31.39
2022-08-03T12:23:37.932Z,32.35
2022-08-03T12:26:08.281Z,31.82
2022-08-03T12:28:38.350Z,31.69
2022-08-03T12:31:13.450Z,31.51
2022-08-03T12:34:00.599Z,31.89
2022-08-03T12:36:29.235Z,31.48
2022-08-03T12:39:03.695Z,31.27
2022-08-03T12:41:36.610Z,31.16
2022-08-03T12:44:06.352Z,31.59
2022-08-03T12:46:37.595Z,31.63
2022-08-03T12:49:09.309Z,31.50
2022-08-03T12:51:43.212Z,31.51
2022-08-03T12:54:17.483Z,31.79
2022-08-03T12:57:04.767Z,31.85
2022-08-03T12:59:52.794Z,31.47
2022-08-03T13:02:26.369Z,31.54
2022-08-03T13:04:55.513Z,32.14
2022-08-03T13:07:23.561Z,32.55
2022-08-03T13:09:57.751Z,32.63
2022-08-03T13:12:29.185Z,32.27
2022-08-03T13:15:00.478Z,32.57
2022-08-03T13:17:28.396Z,33.10
2022-08-03T13:19:56.518Z,32.73
2022-08-03T13:22:29.279Z,32.99
2022-08-03T13:24:57.849Z,33.07
2022-08-03T13:28:04.864Z,33.45
2022-08-03T13:30:14.092Z,33.23
2022-08-03T13:32:51.665Z,33.48
2022-08-03T13:35:19.395Z,33.36
2022-08-03T13:37:47.792Z,32.93
2022-08-03T13:40:16.504Z,33.40
2022-08-03T13:42:44.741Z,34.23
2022-08-03T13:45:12.545Z,33.46
2022-08-03T13:47:39.850Z,33.01
2022-08-03T13:50:07.713Z,33.02
2022-08-03T13:52:35.982Z,33.21
2022-08-03T13:55:07.348Z,33.36
2022-08-03T13:58:03.456Z,33.48
2022-08-03T14:00:28.072Z,32.80
2022-08-03T14:03:03.943Z,32.95
2022-08-03T14:05:35.832Z,32.86
2022-08-03T14:08:05.353Z,32.66
2022-08-03T14:10:34.813Z,33.07
2022-08-03T14:13:02.204Z,32.69
2022-08-03T14:15:29.630Z,33.03
2022-08-03T14:17:58.756Z,32.62
2022-08-03T14:20:38.783Z,32.54
2022-08-03T14:23:15.725Z,32.83
2022-08-03T14:25:52.441Z,33.21
2022-08-03T14:28:24.665Z,33.23
2022-08-03T14:30:57.295Z,33.24
2022-08-03T14:33:25.733Z,33.34
2022-08-03T14:35:53.430Z,33.56
2022-08-03T14:38:21.689Z,33.52
2022-08-03T14:40:49.641Z,34.00
2022-08-03T14:43:22.913Z,33.74
2022-08-03T14:45:53.768Z,33.98
2022-08-03T14:49:02.681Z,33.93
2022-08-03T14:51:10.534Z,34.11
2022-08-03T14:53:37.841Z,34.11
2022-08-03T14:56:10.067Z,34.63
2022-08-03T14:58:38.663Z,34.08
2022-08-03T15:02:03.167Z,34.53
2022-08-03T15:03:55.122Z,34.78
2022-08-03T15:06:22.389Z,34.48
2022-08-03T15:09:13.892Z,34.39
2022-08-03T15:11:38.939Z,34.58
2022-08-03T15:14:09.357Z,34.71
2022-08-03T15:16:38.347Z,34.92
2022-08-03T15:20:00.474Z,35.17
2022-08-03T15:21:53.217Z,35.28
2022-08-03T15:24:21.312Z,35.70
2022-08-03T15:26:48.722Z,35.69
2022-08-03T15:30:04.741Z,35.66
2022-08-03T15:32:08.704Z,36.04
2022-08-03T15:34:36.845Z,35.40
2022-08-03T15:37:16.229Z,35.83
2022-08-03T15:39:58.845Z,35.85
2022-08-03T15:42:29.505Z,36.44
2022-08-03T15:44:57.634Z,36.39
2022-08-03T15:47:24.972Z,36.22
2022-08-03T15:49:52.545Z,37.31
2022-08-03T15:52:19.888Z,36.42
2022-08-03T15:54:47.596Z,36.87
2022-08-03T15:57:15.142Z,37.59
2022-08-03T15:59:42.675Z,37.19
2022-08-03T16:02:10.382Z,37.00
2022-08-03T16:04:38.174Z,37.50
2022-08-03T16:07:05.629Z,37.24
2022-08-03T16:09:43.100Z,37.56
2022-08-03T16:12:16.034Z,37.68
2022-08-03T16:14:53.763Z,37.97
2022-08-03T16:17:22.879Z,37.58
2022-08-03T16:19:54.842Z,37.77
2022-08-03T16:22:24.036Z,38.27
2022-08-03T16:24:52.326Z,37.61
2022-08-03T16:27:58.161Z,37.83
2022-08-03T16:30:09.587Z,38.23
2022-08-03T16:32:38.507Z,38.00
2022-08-03T16:35:06.940Z,38.42
2022-08-03T16:37:38.690Z,38.22
2022-08-03T16:40:17.643Z,38.87
2022-08-03T16:42:47.953Z,39.08
2022-08-03T16:45:15.634Z,40.02
2022-08-03T16:47:43.184Z,39.53
2022-08-03T16:50:17.169Z,39.58
2022-08-03T16:52:48.640Z,39.32
2022-08-03T16:55:42.844Z,39.68
2022-08-03T16:58:05.620Z,40.32
2022-08-03T17:00:41.847Z,40.00
2022-08-03T17:03:12.745Z,41.40
2022-08-03T17:05:49.834Z,41.35
2022-08-03T17:08:26.178Z,42.21
2022-08-03T17:10:55.895Z,42.25
2022-08-03T17:13:39.216Z,42.51
2022-08-03T17:16:09.764Z,42.74
2022-08-03T17:18:51.930Z,42.99
2022-08-03T17:21:26.027Z,43.47
2022-08-03T17:24:23.461Z,43.10
2022-08-03T17:26:54.092Z,43.68
2022-08-03T17:29:25.260Z,44.19
2022-08-03T17:31:57.743Z,44.18
2022-08-03T17:34:26.530Z,44.76
2022-08-03T17:37:04.069Z,44.58
2022-08-03T17:39:57.752Z,45.27
2022-08-03T17:42:30.829Z,45.12
2022-08-03T17:45:02.258Z,45.81
2022-08-03T17:47:42.104Z,46.05
2022-08-03T17:50:24.586Z,46.31
2022-08-03T17:53:15.513Z,46.85
2022-08-03T17:56:45.125Z,46.99
2022-08-03T17:59:50.663Z,46.00
2022-08-03T18:02:51.477Z,46.21
2022-08-03T18:05:21.954Z,45.31
2022-08-03T18:07:59.056Z,46.12
2022-08-03T18:10:28.467Z,45.24
2022-08-03T18:13:10.423Z,44.66
2022-08-03T18:15:46.605Z,44.49
2022-08-03T18:18:32.425Z,44.09
2022-08-03T18:21:06.706Z,44.48
2022-08-03T18:23:40.178Z,44.86
2022-08-03T18:26:12.168Z,44.63
2022-08-03T18:28:40.847Z,44.50
2022-08-03T18:31:33.198Z,44.26
2022-08-03T18:34:19.211Z,44.08
2022-08-03T18:36:55.836Z,44.02
2022-08-03T18:39:24.138Z,44.05
2022-08-03T18:41:52.338Z,43.93
2022-08-03T18:44:52.474Z,43.77
2022-08-03T18:47:50.499Z,44.08
2022-08-03T18:50:31.154Z,44.44
2022-08-03T18:53:03.469Z,44.72
2022-08-03T18:55:35.283Z,45.17
2022-08-03T18:58:15.722Z,45.04
2022-08-03T19:01:01.286Z,44.86
2022-08-03T19:03:43.455Z,45.32
2022-08-03T19:06:20.415Z,45.58
2022-08-03T19:09:12.786Z,45.65
2022-08-03T19:12:13.154Z,46.27
2022-08-03T19:14:44.911Z,46.35
2022-08-03T19:17:14.378Z,46.02
2022-08-03T19:19:51.443Z,46.02
2022-08-03T19:22:21.603Z,46.20
2022-08-03T19:24:52.195Z,46.60
2022-08-03T19:27:27.009Z,46.85
2022-08-03T19:30:01.209Z,47.67
2022-08-03T19:32:33.917Z,47.23
2022-08-03T19:35:03.180Z,48.38
2022-08-03T19:37:38.413Z,48.58
2022-08-03T19:43:20.903Z,48.60
2022-08-03T19:46:05.336Z,48.61
2022-08-03T19:48:36.749Z,48.81
2022-08-03T19:51:12.548Z,48.77
2022-08-03T19:53:45.148Z,49.39
2022-08-03T19:56:14.646Z,48.40
2022-08-03T19:58:43.844Z,48.05
2022-08-03T20:01:19.407Z,48.71
2022-08-03T20:03:50.626Z,49.32
2022-08-03T20:06:22.361Z,49.22
2022-08-03T20:08:51.537Z,48.26
2022-08-03T20:11:20.553Z,49.01
2022-08-03T20:13:58.376Z,49.79
2022-08-03T20:16:26.505Z,49.85
2022-08-03T20:18:54.012Z,50.07
2022-08-03T20:21:25.152Z,50.59
2022-08-03T20:24:02.929Z,50.79
2022-08-03T20:26:53.345Z,50.42
2022-08-03T20:29:42.783Z,50.74
2022-08-03T20:32:19.324Z,50.18
2022-08-03T20:34:52.955Z,50.79
2022-08-03T20:37:21.022Z,50.30
2022-08-03T20:42:36.553Z,51.01
2022-08-03T20:45:06.096Z,51.22
2022-08-03T20:47:50.936Z,51.47
2022-08-03T20:50:21.800Z,51.02
2022-08-03T20:52:51.515Z,51.48
2022-08-03T20:55:47.888Z,51.41
2022-08-03T20:58:13.853Z,51.75
2022-08-03T21:00:51.547Z,52.01
2022-08-03T21:03:20.126Z,52.35
2022-08-03T21:05:53.480Z,52.50
2022-08-03T21:08:23.109Z,52.74
2022-08-03T21:10:54.291Z,52.76
2022-08-03T21:13:02.694Z,48.94
2022-08-03T21:13:13.491Z,50.85
2022-08-03T21:14:01.458Z,52.55
2022-08-03T21:16:32.689Z,52.47
2022-08-03T21:19:04.076Z,53.28
2022-08-03T21:21:33.211Z,53.16
2022-08-03T21:24:04.292Z,53.24
2022-08-03T21:26:37.178Z,52.73
2022-08-03T21:29:05.655Z,52.03
2022-08-03T21:31:33.543Z,52.03
2022-08-03T21:35:43.597Z,51.77
2022-08-03T21:38:19.157Z,52.75
2022-08-03T21:41:23.376Z,52.98
2022-08-03T21:43:56.244Z,53.09
2022-08-03T21:46:44.545Z,53.11
2022-08-03T21:50:04.432Z,53.34
2022-08-03T21:52:07.033Z,53.62
2022-08-03T21:54:41.959Z,54.02
2022-08-03T21:57:26.287Z,54.12
2022-08-03T22:00:06.985Z,54.09
2022-08-03T22:02:54.435Z,54.69
2022-08-03T22:05:43.060Z,54.99
2022-08-03T22:08:15.472Z,55.12
2022-08-03T22:10:45.187Z,55.54
2022-08-03T22:13:23.341Z,55.71
2022-08-03T22:16:06.000Z,55.79
2022-08-03T22:18:37.927Z,55.83
2022-08-03T22:21:09.256Z,56.05
2022-08-03T22:23:43.454Z,56.17
2022-08-03T22:26:35.385Z,56.50
2022-08-03T22:29:07.859Z,56.56
2022-08-03T22:31:58.057Z,56.55
2022-08-03T22:34:27.426Z,56.76
2022-08-03T22:37:00.402Z,57.10
2022-08-03T22:39:34.845Z,57.40
2022-08-03T22:42:05.545Z,57.76
2022-08-03T22:44:32.987Z,58.20
2022-08-03T22:47:00.463Z,58.49
2022-08-03T22:49:28.973Z,58.69
2022-08-03T22:51:56.722Z,59.12
2022-08-03T22:54:24.899Z,59.34
2022-08-03T22:56:52.490Z,59.60
2022-08-03T22:59:38.800Z,59.68
2022-08-03T23:02:19.921Z,60.19
2022-08-03T23:04:53.483Z,60.58
2022-08-03T23:07:28.460Z,60.81
2022-08-03T23:09:58.166Z,60.93
2022-08-03T23:12:27.146Z,60.95
2022-08-03T23:15:02.585Z,61.56
2022-08-03T23:17:32.638Z,61.69
2022-08-03T23:20:07.242Z,62.03
2022-08-03T23:22:38.497Z,61.98
2022-08-03T23:25:11.306Z,62.18
2022-08-03T23:27:44.873Z,62.29
2022-08-03T23:30:13.342Z,62.50
2022-08-03T23:32:43.370Z,63.00
2022-08-03T23:36:22.583Z,63.07
2022-08-03T23:38:22.164Z,63.27
2022-08-03T23:40:51.365Z,63.43
2022-08-03T23:43:50.776Z,63.63
2022-08-03T23:46:10.470Z,63.82
2022-08-03T23:48:37.939Z,63.89
2022-08-03T23:51:10.656Z,64.17
2022-08-03T23:53:57.607Z,64.29
2022-08-03T23:56:37.646Z,64.65
2022-08-03T23:59:44.274Z,64.41
